HLF6335 ZHCC-ZPPP
Flight info
| Callsign | HLF6335 |
|---|---|
| Flight time | 2h 16m |
| Altitude | 34100 |
| Route | DUD9W DUDBI W37 DUBAS R343 WHA A581 XISLI XIS3L |
| Aircraft | B77L/H-SDE1E2E3FGHIJ2J3J4J5M1RWXY/LB1D1 |
Departure
| Time | 2026-05-05 11:46 |
|---|---|
| Airport | Zhengzhou Xinzheng International Airport (ZHCC) |
Arrival
| Time | 2026-05-05 14:03 |
|---|---|
| Airport | Kunming Changshui International Airport (ZPPP) |
| Time | Latitude | Longitude | Altitude | Speed | Heading |
|---|---|---|---|---|---|
| 2026-05-05 11:33 | 34.54208 | 113.85967 | 509 ft | 0 kts | 22° |
| 2026-05-05 11:38 | 34.54202 | 113.85964 | 510 ft | 4 kts | 22° |
| 2026-05-05 11:39 | 34.54177 | 113.85952 | 510 ft | 4 kts | 22° |
| 2026-05-05 11:39 | 34.54152 | 113.85939 | 510 ft | 4 kts | 22° |
| 2026-05-05 11:39 | 34.54130 | 113.85928 | 510 ft | 4 kts | 14° |
| 2026-05-05 11:39 | 34.54108 | 113.85929 | 510 ft | 4 kts | 312° |
| 2026-05-05 11:40 | 34.54096 | 113.85957 | 510 ft | 4 kts | 291° |
| 2026-05-05 11:40 | 34.54092 | 113.85967 | 510 ft | 0 kts | 292° |
| 2026-05-05 11:42 | 34.54103 | 113.85937 | 510 ft | 8 kts | 292° |
| 2026-05-05 11:42 | 34.54134 | 113.85845 | 510 ft | 16 kts | 292° |
| 2026-05-05 11:43 | 34.54185 | 113.85694 | 511 ft | 22 kts | 292° |
| 2026-05-05 11:43 | 34.54251 | 113.85498 | 510 ft | 25 kts | 292° |
| 2026-05-05 11:43 | 34.54214 | 113.85365 | 510 ft | 22 kts | 203° |
| 2026-05-05 11:43 | 34.54059 | 113.85287 | 509 ft | 27 kts | 201° |
| 2026-05-05 11:44 | 34.53872 | 113.85193 | 509 ft | 29 kts | 202° |
| 2026-05-05 11:44 | 34.53798 | 113.85075 | 508 ft | 29 kts | 288° |
| 2026-05-05 11:44 | 34.53902 | 113.84754 | 509 ft | 47 kts | 292° |
| 2026-05-05 11:44 | 34.54026 | 113.84391 | 509 ft | 47 kts | 292° |
| 2026-05-05 11:45 | 34.54088 | 113.84168 | 510 ft | 19 kts | 258° |
| 2026-05-05 11:45 | 34.53978 | 113.84095 | 509 ft | 14 kts | 183° |
| 2026-05-05 11:45 | 34.53916 | 113.84174 | 508 ft | 15 kts | 111° |
| 2026-05-05 11:45 | 34.53854 | 113.84367 | 507 ft | 52 kts | 111° |
| 2026-05-05 11:46 | 34.53601 | 113.85108 | 505 ft | 135 kts | 113° |
| 2026-05-05 11:46 | 34.53142 | 113.86410 | 621 ft | 189 kts | 114° |
| 2026-05-05 11:46 | 34.52612 | 113.87895 | 1093 ft | 194 kts | 115° |
| 2026-05-05 11:46 | 34.52091 | 113.89456 | 1706 ft | 198 kts | 117° |
| 2026-05-05 11:47 | 34.51557 | 113.91070 | 2173 ft | 218 kts | 118° |
| 2026-05-05 11:47 | 34.50959 | 113.92835 | 2564 ft | 231 kts | 118° |
| 2026-05-05 11:47 | 34.50335 | 113.94656 | 3172 ft | 236 kts | 119° |
| 2026-05-05 11:47 | 34.49692 | 113.96501 | 3836 ft | 239 kts | 119° |
| 2026-05-05 11:48 | 34.48354 | 114.00283 | 5064 ft | 250 kts | 118° |
| 2026-05-05 11:48 | 34.47659 | 114.02237 | 5655 ft | 254 kts | 118° |
| 2026-05-05 11:48 | 34.46869 | 114.04142 | 6204 ft | 252 kts | 131° |
| 2026-05-05 11:49 | 34.45594 | 114.05570 | 6739 ft | 249 kts | 148° |
| 2026-05-05 11:49 | 34.44065 | 114.06513 | 7181 ft | 247 kts | 171° |
| 2026-05-05 11:49 | 34.42327 | 114.06780 | 7616 ft | 259 kts | 179° |
| 2026-05-05 11:49 | 34.40467 | 114.06918 | 8048 ft | 275 kts | 179° |
| 2026-05-05 11:50 | 34.38518 | 114.07094 | 8634 ft | 286 kts | 178° |
| 2026-05-05 11:50 | 34.36510 | 114.07319 | 9306 ft | 294 kts | 177° |
| 2026-05-05 11:50 | 34.34456 | 114.07568 | 9801 ft | 299 kts | 176° |
| 2026-05-05 11:50 | 34.32382 | 114.07871 | 9823 ft | 301 kts | 169° |
| 2026-05-05 11:51 | 34.30416 | 114.08754 | 9846 ft | 305 kts | 156° |
| 2026-05-05 11:51 | 34.28513 | 114.09925 | 9839 ft | 306 kts | 154° |
| 2026-05-05 11:51 | 34.26622 | 114.11094 | 9828 ft | 305 kts | 155° |
| 2026-05-05 11:51 | 34.24724 | 114.12234 | 9838 ft | 304 kts | 155° |
| 2026-05-05 11:52 | 34.22821 | 114.13352 | 10174 ft | 305 kts | 156° |
| 2026-05-05 11:52 | 34.20847 | 114.14493 | 10504 ft | 327 kts | 156° |
| 2026-05-05 11:52 | 34.18710 | 114.15724 | 10692 ft | 353 kts | 156° |
| 2026-05-05 11:52 | 34.16444 | 114.17027 | 10878 ft | 378 kts | 156° |
| 2026-05-05 11:53 | 34.14024 | 114.18419 | 11408 ft | 391 kts | 156° |
| 2026-05-05 11:53 | 34.11547 | 114.19846 | 12119 ft | 399 kts | 156° |
| 2026-05-05 11:53 | 34.09030 | 114.21296 | 12960 ft | 403 kts | 155° |
| 2026-05-05 11:53 | 34.06488 | 114.22760 | 13813 ft | 406 kts | 155° |
| 2026-05-05 11:54 | 34.03925 | 114.24234 | 14570 ft | 410 kts | 155° |
| 2026-05-05 11:54 | 34.01334 | 114.25723 | 15326 ft | 414 kts | 155° |
| 2026-05-05 11:54 | 33.98726 | 114.27220 | 16079 ft | 419 kts | 155° |
| 2026-05-05 11:54 | 33.96079 | 114.28739 | 16827 ft | 423 kts | 155° |
| 2026-05-05 11:55 | 33.93414 | 114.30267 | 17570 ft | 427 kts | 155° |
| 2026-05-05 11:55 | 33.90721 | 114.31809 | 18267 ft | 431 kts | 155° |
| 2026-05-05 11:55 | 33.87998 | 114.33367 | 18874 ft | 436 kts | 155° |
| 2026-05-05 11:55 | 33.85243 | 114.34943 | 19453 ft | 441 kts | 155° |
| 2026-05-05 11:56 | 33.82456 | 114.36536 | 20029 ft | 446 kts | 155° |
| 2026-05-05 11:56 | 33.79639 | 114.38144 | 20609 ft | 451 kts | 155° |
| 2026-05-05 11:56 | 33.76789 | 114.39772 | 21190 ft | 456 kts | 155° |
| 2026-05-05 11:56 | 33.73909 | 114.41414 | 21740 ft | 461 kts | 155° |
| 2026-05-05 11:57 | 33.70995 | 114.43075 | 22296 ft | 466 kts | 155° |
| 2026-05-05 11:57 | 33.68050 | 114.44751 | 22851 ft | 471 kts | 155° |
| 2026-05-05 11:57 | 33.65077 | 114.46443 | 23393 ft | 475 kts | 155° |
| 2026-05-05 11:57 | 33.62074 | 114.48150 | 23840 ft | 480 kts | 154° |
| 2026-05-05 11:58 | 33.59040 | 114.49875 | 24267 ft | 485 kts | 154° |
| 2026-05-05 11:58 | 33.55978 | 114.51613 | 24711 ft | 490 kts | 154° |
| 2026-05-05 11:58 | 33.52879 | 114.53371 | 25142 ft | 495 kts | 154° |
| 2026-05-05 11:58 | 33.49752 | 114.55143 | 25578 ft | 500 kts | 154° |
| 2026-05-05 11:59 | 33.46589 | 114.56934 | 25998 ft | 505 kts | 154° |
| 2026-05-05 11:59 | 33.43399 | 114.58739 | 26405 ft | 509 kts | 154° |
| 2026-05-05 11:59 | 33.40180 | 114.60559 | 26817 ft | 514 kts | 154° |
| 2026-05-05 11:59 | 33.36930 | 114.62396 | 27237 ft | 519 kts | 154° |
| 2026-05-05 12:00 | 33.34716 | 114.63646 | 27497 ft | 522 kts | 154° |
| 2026-05-05 12:00 | 33.30345 | 114.66112 | 28014 ft | 528 kts | 154° |
| 2026-05-05 12:00 | 33.28136 | 114.67357 | 28265 ft | 531 kts | 154° |
| 2026-05-05 12:00 | 33.24779 | 114.69248 | 28638 ft | 535 kts | 154° |
| 2026-05-05 12:01 | 33.20103 | 114.71282 | 28945 ft | 541 kts | 170° |
| 2026-05-05 12:01 | 33.17620 | 114.71591 | 29143 ft | 542 kts | 182° |
| 2026-05-05 12:01 | 33.13872 | 114.71216 | 29482 ft | 540 kts | 188° |
| 2026-05-05 12:01 | 33.10132 | 114.70695 | 29876 ft | 543 kts | 188° |
| 2026-05-05 12:02 | 33.06372 | 114.70212 | 30280 ft | 543 kts | 187° |
| 2026-05-05 12:02 | 33.02612 | 114.69790 | 30723 ft | 543 kts | 187° |
| 2026-05-05 12:02 | 32.98863 | 114.69413 | 31167 ft | 543 kts | 186° |
| 2026-05-05 12:02 | 32.95102 | 114.69054 | 31570 ft | 543 kts | 186° |
| 2026-05-05 12:03 | 32.91331 | 114.68691 | 31961 ft | 543 kts | 187° |
| 2026-05-05 12:03 | 32.87565 | 114.68322 | 32367 ft | 543 kts | 187° |
| 2026-05-05 12:03 | 32.83790 | 114.67957 | 32783 ft | 543 kts | 187° |
| 2026-05-05 12:03 | 32.80025 | 114.67602 | 33183 ft | 543 kts | 187° |
| 2026-05-05 12:04 | 32.76257 | 114.67250 | 33559 ft | 544 kts | 187° |
| 2026-05-05 12:04 | 32.72482 | 114.66899 | 33861 ft | 546 kts | 187° |
| 2026-05-05 12:04 | 32.64875 | 114.66187 | 33909 ft | 547 kts | 187° |
| 2026-05-05 12:05 | 32.57335 | 114.65481 | 33918 ft | 541 kts | 187° |
| 2026-05-05 12:05 | 32.49837 | 114.64779 | 33927 ft | 541 kts | 187° |
| 2026-05-05 12:06 | 32.42338 | 114.64077 | 33932 ft | 540 kts | 187° |
| 2026-05-05 12:06 | 32.34843 | 114.63372 | 33928 ft | 540 kts | 187° |
| 2026-05-05 12:07 | 32.27350 | 114.62643 | 33926 ft | 540 kts | 187° |
| 2026-05-05 12:07 | 32.19912 | 114.61915 | 33927 ft | 540 kts | 187° |
| 2026-05-05 12:08 | 32.12429 | 114.61188 | 33931 ft | 539 kts | 187° |
| 2026-05-05 12:08 | 32.04947 | 114.60464 | 33933 ft | 539 kts | 187° |
| 2026-05-05 12:09 | 31.97485 | 114.59744 | 33932 ft | 539 kts | 187° |
| 2026-05-05 12:09 | 31.90010 | 114.59023 | 33939 ft | 539 kts | 187° |
| 2026-05-05 12:10 | 31.82533 | 114.58303 | 33943 ft | 539 kts | 187° |
| 2026-05-05 12:10 | 31.75059 | 114.57584 | 33944 ft | 539 kts | 187° |
| 2026-05-05 12:11 | 31.67573 | 114.56866 | 33940 ft | 540 kts | 187° |
| 2026-05-05 12:11 | 31.60088 | 114.56146 | 33950 ft | 540 kts | 187° |
| 2026-05-05 12:12 | 31.52604 | 114.55421 | 33952 ft | 540 kts | 187° |
| 2026-05-05 12:12 | 31.45116 | 114.54696 | 33954 ft | 540 kts | 187° |
| 2026-05-05 12:13 | 31.37624 | 114.53973 | 33949 ft | 540 kts | 187° |
| 2026-05-05 12:13 | 31.30132 | 114.53251 | 33953 ft | 540 kts | 187° |
| 2026-05-05 12:14 | 31.22769 | 114.51815 | 33931 ft | 534 kts | 200° |
| 2026-05-05 12:14 | 31.15963 | 114.48575 | 33947 ft | 525 kts | 211° |
| 2026-05-05 12:15 | 31.09399 | 114.44833 | 33946 ft | 526 kts | 211° |
| 2026-05-05 12:15 | 31.02787 | 114.41175 | 33933 ft | 526 kts | 210° |
| 2026-05-05 12:16 | 30.96174 | 114.37594 | 33926 ft | 525 kts | 210° |
| 2026-05-05 12:16 | 30.89609 | 114.33979 | 33929 ft | 525 kts | 211° |
| 2026-05-05 12:17 | 30.83422 | 114.29680 | 33924 ft | 510 kts | 229° |
| 2026-05-05 12:17 | 30.79126 | 114.23355 | 33935 ft | 493 kts | 250° |
| 2026-05-05 12:18 | 30.76234 | 114.16199 | 33928 ft | 498 kts | 245° |
| 2026-05-05 12:18 | 30.72336 | 114.09456 | 33938 ft | 505 kts | 242° |
| 2026-05-05 12:19 | 30.68441 | 114.02697 | 33921 ft | 499 kts | 244° |
| 2026-05-05 12:19 | 30.64706 | 113.95948 | 33941 ft | 496 kts | 244° |
| 2026-05-05 12:20 | 30.60981 | 113.89215 | 33939 ft | 495 kts | 244° |
| 2026-05-05 12:20 | 30.57249 | 113.82490 | 33944 ft | 495 kts | 244° |
| 2026-05-05 12:21 | 30.53520 | 113.75770 | 33938 ft | 495 kts | 244° |
| 2026-05-05 12:21 | 30.49793 | 113.69053 | 33925 ft | 495 kts | 244° |
| 2026-05-05 12:22 | 30.46061 | 113.62336 | 33940 ft | 496 kts | 244° |
| 2026-05-05 12:22 | 30.42318 | 113.55613 | 33943 ft | 497 kts | 244° |
| 2026-05-05 12:23 | 30.38564 | 113.48881 | 33948 ft | 497 kts | 244° |
| 2026-05-05 12:23 | 30.34809 | 113.42161 | 33911 ft | 496 kts | 244° |
| 2026-05-05 12:24 | 30.31060 | 113.35463 | 33938 ft | 496 kts | 244° |
| 2026-05-05 12:24 | 30.27310 | 113.28770 | 33946 ft | 496 kts | 244° |
| 2026-05-05 12:25 | 30.23580 | 113.22124 | 33944 ft | 496 kts | 244° |
| 2026-05-05 12:25 | 30.19833 | 113.15434 | 33944 ft | 495 kts | 245° |
| 2026-05-05 12:26 | 30.16146 | 113.08730 | 33920 ft | 494 kts | 245° |
| 2026-05-05 12:26 | 30.12472 | 113.02035 | 33938 ft | 493 kts | 245° |
| 2026-05-05 12:27 | 30.08894 | 112.95538 | 33949 ft | 493 kts | 245° |
| 2026-05-05 12:27 | 30.05203 | 112.88858 | 33951 ft | 493 kts | 245° |
| 2026-05-05 12:28 | 30.01505 | 112.82180 | 33948 ft | 494 kts | 245° |
| 2026-05-05 12:28 | 29.97812 | 112.75522 | 33945 ft | 493 kts | 245° |
| 2026-05-05 12:29 | 29.94111 | 112.68860 | 33949 ft | 493 kts | 245° |
| 2026-05-05 12:29 | 29.90410 | 112.62206 | 33950 ft | 493 kts | 245° |
| 2026-05-05 12:30 | 29.86705 | 112.55559 | 33948 ft | 493 kts | 245° |
| 2026-05-05 12:30 | 29.82998 | 112.48917 | 33954 ft | 493 kts | 245° |
| 2026-05-05 12:31 | 29.79288 | 112.42280 | 33936 ft | 492 kts | 245° |
| 2026-05-05 12:31 | 29.75584 | 112.35663 | 33946 ft | 491 kts | 245° |
| 2026-05-05 12:32 | 29.71878 | 112.29066 | 33951 ft | 491 kts | 245° |
| 2026-05-05 12:32 | 29.68154 | 112.22483 | 33954 ft | 491 kts | 244° |
| 2026-05-05 12:33 | 29.64429 | 112.15910 | 33951 ft | 491 kts | 244° |
| 2026-05-05 12:33 | 29.60702 | 112.09338 | 33920 ft | 490 kts | 244° |
| 2026-05-05 12:34 | 29.56982 | 112.02788 | 33937 ft | 489 kts | 244° |
| 2026-05-05 12:34 | 29.53364 | 111.96424 | 33936 ft | 489 kts | 244° |
| 2026-05-05 12:35 | 29.49643 | 111.89891 | 33953 ft | 489 kts | 244° |
| 2026-05-05 12:35 | 29.45922 | 111.83368 | 33955 ft | 488 kts | 244° |
| 2026-05-05 12:36 | 29.42224 | 111.76895 | 33947 ft | 488 kts | 244° |
| 2026-05-05 12:36 | 29.38499 | 111.70384 | 33947 ft | 488 kts | 244° |
| 2026-05-05 12:37 | 29.34974 | 111.63776 | 33956 ft | 481 kts | 250° |
| 2026-05-05 12:37 | 29.32421 | 111.56770 | 33949 ft | 475 kts | 256° |
| 2026-05-05 12:38 | 29.30026 | 111.49708 | 33942 ft | 476 kts | 256° |
| 2026-05-05 12:38 | 29.27597 | 111.42654 | 33948 ft | 477 kts | 255° |
| 2026-05-05 12:39 | 29.25139 | 111.35600 | 33955 ft | 477 kts | 255° |
| 2026-05-05 12:39 | 29.22671 | 111.28549 | 33958 ft | 477 kts | 255° |
| 2026-05-05 12:40 | 29.20197 | 111.21494 | 33948 ft | 477 kts | 255° |
| 2026-05-05 12:40 | 29.17723 | 111.14447 | 33960 ft | 477 kts | 255° |
| 2026-05-05 12:41 | 29.15246 | 111.07405 | 33951 ft | 478 kts | 255° |
| 2026-05-05 12:41 | 29.12765 | 111.00367 | 33974 ft | 476 kts | 255° |
| 2026-05-05 12:42 | 29.10359 | 110.93547 | 33975 ft | 477 kts | 255° |
| 2026-05-05 12:42 | 29.07869 | 110.86510 | 33973 ft | 477 kts | 255° |
| 2026-05-05 12:43 | 29.05379 | 110.79481 | 33964 ft | 477 kts | 255° |
| 2026-05-05 12:43 | 29.02885 | 110.72458 | 33980 ft | 477 kts | 254° |
| 2026-05-05 12:44 | 29.00410 | 110.65420 | 33979 ft | 477 kts | 255° |
| 2026-05-05 12:44 | 28.97954 | 110.58384 | 33982 ft | 478 kts | 255° |
| 2026-05-05 12:45 | 28.95485 | 110.51324 | 33981 ft | 479 kts | 255° |
| 2026-05-05 12:45 | 28.93006 | 110.44263 | 33979 ft | 479 kts | 254° |
| 2026-05-05 12:46 | 28.90524 | 110.37211 | 34001 ft | 480 kts | 254° |
| 2026-05-05 12:46 | 28.88042 | 110.30169 | 33973 ft | 481 kts | 254° |
| 2026-05-05 12:47 | 28.85546 | 110.23106 | 33979 ft | 480 kts | 254° |
| 2026-05-05 12:47 | 28.83050 | 110.16056 | 33976 ft | 479 kts | 254° |
| 2026-05-05 12:48 | 28.80962 | 110.10171 | 33970 ft | 477 kts | 254° |
| 2026-05-05 12:48 | 28.78497 | 110.03239 | 33971 ft | 472 kts | 254° |
| 2026-05-05 12:49 | 28.76102 | 109.96511 | 33998 ft | 471 kts | 254° |
| 2026-05-05 12:49 | 28.73619 | 109.89543 | 33979 ft | 471 kts | 254° |
| 2026-05-05 12:50 | 28.71167 | 109.82677 | 33980 ft | 471 kts | 254° |
| 2026-05-05 12:50 | 28.68689 | 109.75757 | 33991 ft | 472 kts | 253° |
| 2026-05-05 12:51 | 28.66207 | 109.68826 | 33970 ft | 473 kts | 253° |
| 2026-05-05 12:51 | 28.63759 | 109.61886 | 33960 ft | 472 kts | 254° |
| 2026-05-05 12:52 | 28.61397 | 109.54922 | 33976 ft | 472 kts | 255° |
| 2026-05-05 12:52 | 28.59016 | 109.47951 | 33964 ft | 473 kts | 254° |
| 2026-05-05 12:53 | 28.56350 | 109.41093 | 33970 ft | 476 kts | 249° |
| 2026-05-05 12:53 | 28.53357 | 109.34388 | 33964 ft | 475 kts | 249° |
| 2026-05-05 12:54 | 28.48895 | 109.24333 | 33960 ft | 474 kts | 249° |
| 2026-05-05 12:55 | 28.45939 | 109.17631 | 33961 ft | 474 kts | 249° |
| 2026-05-05 12:55 | 28.42985 | 109.10955 | 33955 ft | 472 kts | 249° |
| 2026-05-05 12:56 | 28.40032 | 109.04301 | 33957 ft | 472 kts | 249° |
| 2026-05-05 12:56 | 28.37161 | 108.97839 | 33955 ft | 472 kts | 249° |
| 2026-05-05 12:57 | 28.34203 | 108.91189 | 33967 ft | 472 kts | 249° |
| 2026-05-05 12:57 | 28.31244 | 108.84543 | 33965 ft | 472 kts | 249° |
| 2026-05-05 12:58 | 28.28275 | 108.77890 | 33958 ft | 473 kts | 249° |
| 2026-05-05 12:58 | 28.25299 | 108.71233 | 33961 ft | 473 kts | 249° |
| 2026-05-05 12:59 | 28.22318 | 108.64573 | 33933 ft | 474 kts | 249° |
| 2026-05-05 12:59 | 28.19332 | 108.57912 | 33946 ft | 474 kts | 249° |
| 2026-05-05 13:00 | 28.14855 | 108.47949 | 33962 ft | 475 kts | 248° |
| 2026-05-05 13:01 | 28.08846 | 108.34613 | 33969 ft | 476 kts | 248° |
| 2026-05-05 13:01 | 28.05827 | 108.27931 | 33951 ft | 477 kts | 248° |
| 2026-05-05 13:02 | 28.02801 | 108.21245 | 33954 ft | 477 kts | 248° |
| 2026-05-05 13:02 | 27.99784 | 108.14584 | 33955 ft | 476 kts | 248° |
| 2026-05-05 13:03 | 27.96760 | 108.07926 | 33949 ft | 476 kts | 248° |
| 2026-05-05 13:03 | 27.93742 | 108.01285 | 33963 ft | 474 kts | 248° |
| 2026-05-05 13:04 | 27.90802 | 107.94828 | 33964 ft | 475 kts | 248° |
| 2026-05-05 13:04 | 27.87773 | 107.88188 | 33962 ft | 475 kts | 248° |
| 2026-05-05 13:05 | 27.84744 | 107.81551 | 33953 ft | 475 kts | 248° |
| 2026-05-05 13:05 | 27.81717 | 107.74914 | 33965 ft | 475 kts | 248° |
| 2026-05-05 13:06 | 27.78755 | 107.68261 | 33946 ft | 473 kts | 248° |
| 2026-05-05 13:06 | 27.75816 | 107.61637 | 33968 ft | 471 kts | 248° |
| 2026-05-05 13:07 | 27.72874 | 107.55035 | 33959 ft | 470 kts | 248° |
| 2026-05-05 13:07 | 27.69934 | 107.48458 | 33969 ft | 469 kts | 248° |
| 2026-05-05 13:08 | 27.66993 | 107.41892 | 33969 ft | 468 kts | 248° |
| 2026-05-05 13:08 | 27.64055 | 107.35340 | 33970 ft | 467 kts | 248° |
| 2026-05-05 13:09 | 27.61125 | 107.28816 | 33965 ft | 466 kts | 248° |
| 2026-05-05 13:09 | 27.58197 | 107.22308 | 33965 ft | 465 kts | 248° |
| 2026-05-05 13:10 | 27.55267 | 107.15822 | 33954 ft | 464 kts | 247° |
| 2026-05-05 13:10 | 27.52338 | 107.09364 | 33958 ft | 462 kts | 247° |
| 2026-05-05 13:11 | 27.49437 | 107.02967 | 33959 ft | 461 kts | 246° |
| 2026-05-05 13:11 | 27.46580 | 106.96666 | 33965 ft | 461 kts | 247° |
| 2026-05-05 13:12 | 27.43723 | 106.90265 | 33967 ft | 460 kts | 247° |
| 2026-05-05 13:12 | 27.40850 | 106.83821 | 33962 ft | 461 kts | 247° |
| 2026-05-05 13:13 | 27.37965 | 106.77377 | 33969 ft | 461 kts | 247° |
| 2026-05-05 13:13 | 27.35069 | 106.70938 | 33975 ft | 462 kts | 246° |
| 2026-05-05 13:14 | 27.32153 | 106.64496 | 33964 ft | 462 kts | 246° |
| 2026-05-05 13:14 | 27.29230 | 106.58047 | 33970 ft | 463 kts | 246° |
| 2026-05-05 13:15 | 27.26302 | 106.51591 | 33961 ft | 464 kts | 246° |
| 2026-05-05 13:15 | 27.23371 | 106.45134 | 33973 ft | 464 kts | 246° |
| 2026-05-05 13:16 | 27.20434 | 106.38674 | 33966 ft | 465 kts | 246° |
| 2026-05-05 13:16 | 27.17491 | 106.32199 | 33960 ft | 465 kts | 246° |
| 2026-05-05 13:17 | 27.14553 | 106.25729 | 33956 ft | 466 kts | 246° |
| 2026-05-05 13:17 | 27.11608 | 106.19253 | 33947 ft | 465 kts | 246° |
| 2026-05-05 13:18 | 27.10130 | 106.16005 | 33960 ft | 465 kts | 246° |
| 2026-05-05 13:18 | 27.07188 | 106.09549 | 33965 ft | 465 kts | 246° |
| 2026-05-05 13:19 | 27.04255 | 106.03108 | 33963 ft | 464 kts | 247° |
| 2026-05-05 13:19 | 27.01678 | 105.96757 | 33965 ft | 462 kts | 250° |
| 2026-05-05 13:20 | 26.99111 | 105.90187 | 33958 ft | 462 kts | 250° |
| 2026-05-05 13:20 | 26.96525 | 105.83596 | 33953 ft | 462 kts | 250° |
| 2026-05-05 13:21 | 26.93925 | 105.77019 | 33949 ft | 461 kts | 250° |
| 2026-05-05 13:21 | 26.91317 | 105.70450 | 33952 ft | 461 kts | 250° |
| 2026-05-05 13:22 | 26.88706 | 105.63885 | 33925 ft | 461 kts | 250° |
| 2026-05-05 13:22 | 26.86115 | 105.57381 | 33939 ft | 460 kts | 250° |
| 2026-05-05 13:23 | 26.83493 | 105.50809 | 33950 ft | 459 kts | 250° |
| 2026-05-05 13:23 | 26.80892 | 105.44297 | 33943 ft | 458 kts | 250° |
| 2026-05-05 13:24 | 26.78306 | 105.37834 | 33942 ft | 458 kts | 250° |
| 2026-05-05 13:24 | 26.75701 | 105.31335 | 33933 ft | 458 kts | 250° |
| 2026-05-05 13:25 | 26.73096 | 105.24843 | 33914 ft | 456 kts | 250° |
| 2026-05-05 13:25 | 26.70481 | 105.18343 | 33938 ft | 456 kts | 250° |
| 2026-05-05 13:26 | 26.67893 | 105.11928 | 33931 ft | 457 kts | 249° |
| 2026-05-05 13:26 | 26.65284 | 105.05434 | 33928 ft | 458 kts | 248° |
| 2026-05-05 13:27 | 26.62264 | 104.99367 | 33935 ft | 463 kts | 240° |
| 2026-05-05 13:27 | 26.58706 | 104.93350 | 33936 ft | 465 kts | 240° |
| 2026-05-05 13:28 | 26.55142 | 104.87320 | 33954 ft | 465 kts | 240° |
| 2026-05-05 13:28 | 26.51589 | 104.81275 | 33939 ft | 465 kts | 240° |
| 2026-05-05 13:29 | 26.48046 | 104.75237 | 33938 ft | 465 kts | 240° |
| 2026-05-05 13:29 | 26.44505 | 104.69205 | 33933 ft | 465 kts | 240° |
| 2026-05-05 13:30 | 26.40967 | 104.63188 | 33906 ft | 460 kts | 239° |
| 2026-05-05 13:30 | 26.39211 | 104.60205 | 33275 ft | 462 kts | 239° |
| 2026-05-05 13:30 | 26.37449 | 104.57214 | 32595 ft | 461 kts | 239° |
| 2026-05-05 13:31 | 26.35698 | 104.54243 | 32023 ft | 457 kts | 239° |
| 2026-05-05 13:31 | 26.33955 | 104.51288 | 31458 ft | 455 kts | 239° |
| 2026-05-05 13:31 | 26.32221 | 104.48351 | 30910 ft | 453 kts | 239° |
| 2026-05-05 13:31 | 26.30491 | 104.45423 | 30347 ft | 451 kts | 239° |
| 2026-05-05 13:32 | 26.28769 | 104.42508 | 29744 ft | 451 kts | 239° |
| 2026-05-05 13:32 | 26.27046 | 104.39594 | 29112 ft | 449 kts | 239° |
| 2026-05-05 13:32 | 26.25334 | 104.36701 | 28537 ft | 446 kts | 239° |
| 2026-05-05 13:32 | 26.23628 | 104.33820 | 27968 ft | 444 kts | 239° |
| 2026-05-05 13:33 | 26.21937 | 104.30966 | 27408 ft | 440 kts | 239° |
| 2026-05-05 13:33 | 26.20278 | 104.28167 | 26883 ft | 437 kts | 239° |
| 2026-05-05 13:33 | 26.18608 | 104.25351 | 26320 ft | 435 kts | 239° |
| 2026-05-05 13:33 | 26.16944 | 104.22545 | 25798 ft | 433 kts | 239° |
| 2026-05-05 13:34 | 26.15289 | 104.19759 | 25248 ft | 431 kts | 239° |
| 2026-05-05 13:34 | 26.13641 | 104.16988 | 24727 ft | 428 kts | 239° |
| 2026-05-05 13:34 | 26.12002 | 104.14231 | 24193 ft | 426 kts | 239° |
| 2026-05-05 13:34 | 26.10373 | 104.11491 | 23681 ft | 423 kts | 239° |
| 2026-05-05 13:35 | 26.09279 | 104.09654 | 23291 ft | 422 kts | 239° |
| 2026-05-05 13:35 | 26.07663 | 104.06938 | 22697 ft | 419 kts | 239° |
| 2026-05-05 13:35 | 26.06062 | 104.04251 | 22179 ft | 415 kts | 239° |
| 2026-05-05 13:35 | 26.04477 | 104.01592 | 21674 ft | 410 kts | 239° |
| 2026-05-05 13:36 | 26.02481 | 103.98246 | 21050 ft | 405 kts | 239° |
| 2026-05-05 13:36 | 26.00933 | 103.95649 | 20568 ft | 402 kts | 238° |
| 2026-05-05 13:36 | 25.99405 | 103.93091 | 20092 ft | 399 kts | 238° |
| 2026-05-05 13:36 | 25.98371 | 103.91360 | 19766 ft | 397 kts | 238° |
| 2026-05-05 13:37 | 25.96864 | 103.88852 | 19286 ft | 394 kts | 238° |
| 2026-05-05 13:37 | 25.95317 | 103.86344 | 18800 ft | 393 kts | 237° |
| 2026-05-05 13:37 | 25.93767 | 103.83858 | 18333 ft | 391 kts | 237° |
| 2026-05-05 13:37 | 25.92224 | 103.81382 | 17792 ft | 389 kts | 237° |
| 2026-05-05 13:38 | 25.90692 | 103.78916 | 17208 ft | 389 kts | 237° |
| 2026-05-05 13:38 | 25.89153 | 103.76438 | 16675 ft | 386 kts | 237° |
| 2026-05-05 13:38 | 25.87540 | 103.74076 | 16197 ft | 384 kts | 228° |
| 2026-05-05 13:38 | 25.85466 | 103.72259 | 15742 ft | 379 kts | 217° |
| 2026-05-05 13:39 | 25.83292 | 103.70619 | 15310 ft | 376 kts | 218° |
| 2026-05-05 13:39 | 25.81170 | 103.68980 | 14863 ft | 375 kts | 218° |
| 2026-05-05 13:39 | 25.79049 | 103.67312 | 14390 ft | 373 kts | 218° |
| 2026-05-05 13:39 | 25.76936 | 103.65635 | 13955 ft | 372 kts | 219° |
| 2026-05-05 13:40 | 25.74842 | 103.63969 | 13652 ft | 367 kts | 219° |
| 2026-05-05 13:40 | 25.72793 | 103.62342 | 13467 ft | 357 kts | 219° |
| 2026-05-05 13:40 | 25.70796 | 103.60760 | 13298 ft | 348 kts | 219° |
| 2026-05-05 13:40 | 25.68849 | 103.59222 | 13131 ft | 340 kts | 218° |
| 2026-05-05 13:41 | 25.66949 | 103.57722 | 12981 ft | 331 kts | 219° |
| 2026-05-05 13:41 | 25.65098 | 103.56263 | 12843 ft | 321 kts | 217° |
| 2026-05-05 13:41 | 25.63101 | 103.55246 | 12689 ft | 317 kts | 196° |
| 2026-05-05 13:41 | 25.60908 | 103.55155 | 12587 ft | 317 kts | 175° |
| 2026-05-05 13:42 | 25.58833 | 103.55863 | 12626 ft | 307 kts | 160° |
| 2026-05-05 13:42 | 25.57081 | 103.57150 | 12597 ft | 301 kts | 139° |
| 2026-05-05 13:42 | 25.55624 | 103.58870 | 12632 ft | 309 kts | 136° |
| 2026-05-05 13:42 | 25.54149 | 103.60584 | 12608 ft | 302 kts | 145° |
| 2026-05-05 13:43 | 25.52460 | 103.61893 | 12627 ft | 294 kts | 154° |
| 2026-05-05 13:43 | 25.50737 | 103.63044 | 12634 ft | 294 kts | 154° |
| 2026-05-05 13:43 | 25.48981 | 103.64235 | 12625 ft | 297 kts | 153° |
| 2026-05-05 13:43 | 25.47217 | 103.65445 | 12629 ft | 297 kts | 156° |
| 2026-05-05 13:44 | 25.45335 | 103.66323 | 12626 ft | 292 kts | 167° |
| 2026-05-05 13:44 | 25.43390 | 103.66989 | 12610 ft | 293 kts | 168° |
| 2026-05-05 13:44 | 25.41445 | 103.67655 | 12613 ft | 293 kts | 167° |
| 2026-05-05 13:44 | 25.39506 | 103.68343 | 12630 ft | 293 kts | 167° |
| 2026-05-05 13:45 | 25.37545 | 103.68869 | 12604 ft | 286 kts | 179° |
| 2026-05-05 13:45 | 25.35573 | 103.69023 | 12637 ft | 286 kts | 183° |
| 2026-05-05 13:45 | 25.33560 | 103.69125 | 12633 ft | 292 kts | 182° |
| 2026-05-05 13:45 | 25.31554 | 103.69254 | 12605 ft | 285 kts | 182° |
| 2026-05-05 13:46 | 25.29598 | 103.69382 | 12581 ft | 277 kts | 186° |
| 2026-05-05 13:46 | 25.27701 | 103.69152 | 12625 ft | 275 kts | 196° |
| 2026-05-05 13:46 | 25.25807 | 103.68727 | 12629 ft | 280 kts | 197° |
| 2026-05-05 13:46 | 25.23895 | 103.68304 | 12629 ft | 281 kts | 197° |
| 2026-05-05 13:47 | 25.21981 | 103.67903 | 12587 ft | 278 kts | 196° |
| 2026-05-05 13:47 | 25.20123 | 103.67436 | 12608 ft | 269 kts | 206° |
| 2026-05-05 13:47 | 25.18430 | 103.66622 | 12588 ft | 264 kts | 210° |
| 2026-05-05 13:47 | 25.16767 | 103.65733 | 12630 ft | 268 kts | 211° |
| 2026-05-05 13:48 | 25.15070 | 103.64842 | 12620 ft | 272 kts | 210° |
| 2026-05-05 13:48 | 25.13351 | 103.63961 | 12618 ft | 273 kts | 210° |
| 2026-05-05 13:48 | 25.11709 | 103.62959 | 12608 ft | 266 kts | 221° |
| 2026-05-05 13:48 | 25.10262 | 103.61699 | 12613 ft | 264 kts | 224° |
| 2026-05-05 13:49 | 25.08871 | 103.60388 | 12591 ft | 259 kts | 230° |
| 2026-05-05 13:49 | 25.07947 | 103.58751 | 12625 ft | 252 kts | 255° |
| 2026-05-05 13:49 | 25.07720 | 103.56831 | 12615 ft | 256 kts | 274° |
| 2026-05-05 13:49 | 25.08091 | 103.54889 | 12509 ft | 263 kts | 289° |
| 2026-05-05 13:50 | 25.09104 | 103.53229 | 12364 ft | 262 kts | 311° |
| 2026-05-05 13:50 | 25.10430 | 103.51842 | 12297 ft | 265 kts | 312° |
| 2026-05-05 13:50 | 25.11782 | 103.50439 | 12168 ft | 267 kts | 312° |
| 2026-05-05 13:50 | 25.13133 | 103.49036 | 12075 ft | 268 kts | 313° |
| 2026-05-05 13:51 | 25.14494 | 103.47621 | 11966 ft | 269 kts | 312° |
| 2026-05-05 13:51 | 25.15836 | 103.46218 | 11865 ft | 269 kts | 312° |
| 2026-05-05 13:51 | 25.17195 | 103.44793 | 11750 ft | 269 kts | 312° |
| 2026-05-05 13:51 | 25.18547 | 103.43370 | 11640 ft | 268 kts | 312° |
| 2026-05-05 13:52 | 25.19890 | 103.41954 | 11530 ft | 266 kts | 312° |
| 2026-05-05 13:52 | 25.21217 | 103.40551 | 11417 ft | 263 kts | 312° |
| 2026-05-05 13:52 | 25.22532 | 103.39161 | 11314 ft | 259 kts | 311° |
| 2026-05-05 13:52 | 25.23823 | 103.37794 | 11223 ft | 257 kts | 311° |
| 2026-05-05 13:53 | 25.25118 | 103.36420 | 11130 ft | 260 kts | 311° |
| 2026-05-05 13:53 | 25.26435 | 103.35024 | 11031 ft | 264 kts | 311° |
| 2026-05-05 13:53 | 25.27764 | 103.33617 | 10933 ft | 265 kts | 311° |
| 2026-05-05 13:53 | 25.29088 | 103.32213 | 10837 ft | 261 kts | 311° |
| 2026-05-05 13:54 | 25.30374 | 103.30849 | 10690 ft | 249 kts | 309° |
| 2026-05-05 13:54 | 25.31265 | 103.29331 | 10584 ft | 229 kts | 286° |
| 2026-05-05 13:54 | 25.31601 | 103.27637 | 10494 ft | 225 kts | 274° |
| 2026-05-05 13:54 | 25.31721 | 103.25921 | 10458 ft | 224 kts | 271° |
| 2026-05-05 13:55 | 25.31817 | 103.24193 | 10330 ft | 227 kts | 271° |
| 2026-05-05 13:55 | 25.31918 | 103.22442 | 10212 ft | 229 kts | 272° |
| 2026-05-05 13:55 | 25.32023 | 103.20719 | 10084 ft | 219 kts | 272° |
| 2026-05-05 13:55 | 25.32126 | 103.19113 | 9964 ft | 200 kts | 272° |
| 2026-05-05 13:56 | 25.32222 | 103.17630 | 9867 ft | 190 kts | 270° |
| 2026-05-05 13:56 | 25.32311 | 103.16180 | 9785 ft | 188 kts | 271° |
| 2026-05-05 13:56 | 25.32320 | 103.14750 | 9700 ft | 185 kts | 255° |
| 2026-05-05 13:56 | 25.31643 | 103.13566 | 9674 ft | 187 kts | 228° |
| 2026-05-05 13:57 | 25.30719 | 103.12522 | 9726 ft | 191 kts | 230° |
| 2026-05-05 13:57 | 25.29793 | 103.11476 | 9722 ft | 189 kts | 227° |
| 2026-05-05 13:57 | 25.28838 | 103.10522 | 9743 ft | 178 kts | 225° |
| 2026-05-05 13:57 | 25.27928 | 103.09688 | 9751 ft | 162 kts | 224° |
| 2026-05-05 13:58 | 25.27090 | 103.08939 | 9742 ft | 150 kts | 224° |
| 2026-05-05 13:58 | 25.26280 | 103.08221 | 9756 ft | 149 kts | 224° |
| 2026-05-05 13:58 | 25.25467 | 103.07504 | 9772 ft | 150 kts | 224° |
| 2026-05-05 13:58 | 25.24645 | 103.06782 | 9784 ft | 151 kts | 224° |
| 2026-05-05 13:59 | 25.22975 | 103.05317 | 9595 ft | 154 kts | 223° |
| 2026-05-05 13:59 | 25.22148 | 103.04594 | 9409 ft | 150 kts | 223° |
| 2026-05-05 14:00 | 25.20491 | 103.03143 | 9030 ft | 153 kts | 224° |
| 2026-05-05 14:00 | 25.19939 | 103.02659 | 8906 ft | 153 kts | 224° |
| 2026-05-05 14:00 | 25.18839 | 103.01694 | 8658 ft | 152 kts | 222° |
| 2026-05-05 14:00 | 25.18012 | 103.00970 | 8465 ft | 152 kts | 221° |
| 2026-05-05 14:01 | 25.17173 | 103.00235 | 8289 ft | 155 kts | 221° |
| 2026-05-05 14:01 | 25.16385 | 102.99546 | 8088 ft | 154 kts | 221° |
| 2026-05-05 14:01 | 25.15539 | 102.98805 | 7936 ft | 154 kts | 221° |
| 2026-05-05 14:01 | 25.14698 | 102.98067 | 7736 ft | 154 kts | 219° |
| 2026-05-05 14:02 | 25.13853 | 102.97329 | 7503 ft | 155 kts | 217° |
| 2026-05-05 14:02 | 25.12968 | 102.96603 | 7274 ft | 158 kts | 223° |
| 2026-05-05 14:02 | 25.12144 | 102.95811 | 7088 ft | 157 kts | 213° |
| 2026-05-05 14:02 | 25.11334 | 102.95119 | 6922 ft | 136 kts | 221° |
| 2026-05-05 14:03 | 25.10638 | 102.94515 | 6895 ft | 118 kts | 217° |
| 2026-05-05 14:03 | 25.10104 | 102.94052 | 6899 ft | 65 kts | 219° |
| 2026-05-05 14:03 | 25.09804 | 102.93766 | 6897 ft | 46 kts | 231° |
| 2026-05-05 14:03 | 25.09699 | 102.93533 | 6900 ft | 26 kts | 249° |
| 2026-05-05 14:04 | 25.09605 | 102.93384 | 6900 ft | 22 kts | 224° |
| 2026-05-05 14:04 | 25.09496 | 102.93284 | 6901 ft | 19 kts | 220° |
| 2026-05-05 14:04 | 25.09344 | 102.93149 | 6901 ft | 35 kts | 218° |
| 2026-05-05 14:04 | 25.09166 | 102.92997 | 6901 ft | 22 kts | 218° |
| 2026-05-05 14:05 | 25.09148 | 102.92876 | 6902 ft | 8 kts | 342° |
| 2026-05-05 14:05 | 25.09198 | 102.92907 | 6902 ft | 8 kts | 35° |
| 2026-05-05 14:05 | 25.09245 | 102.92944 | 6902 ft | 8 kts | 37° |
| 2026-05-05 14:05 | 25.09290 | 102.92983 | 6902 ft | 8 kts | 44° |
| 2026-05-05 14:06 | 25.09335 | 102.93025 | 6902 ft | 9 kts | 32° |
| 2026-05-05 14:06 | 25.09382 | 102.93064 | 6902 ft | 9 kts | 41° |
| 2026-05-05 14:06 | 25.09428 | 102.93106 | 6901 ft | 9 kts | 37° |
| 2026-05-05 14:06 | 25.09481 | 102.93132 | 6901 ft | 9 kts | 359° |
| 2026-05-05 14:07 | 25.09527 | 102.93094 | 6901 ft | 9 kts | 302° |
| 2026-05-05 14:07 | 25.09508 | 102.93035 | 6902 ft | 9 kts | 216° |
| 2026-05-05 14:07 | 25.09478 | 102.93013 | 6902 ft | 0 kts | 215° |